createdAt,value
2018-07-01T00:03:23.897Z,60.50
2018-07-01T00:08:27.151Z,61.00
2018-07-01T00:13:30.414Z,62.10
2018-07-01T00:18:33.755Z,63.00
2018-07-01T00:23:37.084Z,64.70
2018-07-01T00:28:40.349Z,66.80
2018-07-01T00:33:43.597Z,67.40
2018-07-01T00:38:46.866Z,68.20
2018-07-01T00:43:50.129Z,68.00
2018-07-01T00:48:53.409Z,67.40
2018-07-01T00:53:56.660Z,67.90
2018-07-01T00:58:59.915Z,68.10
2018-07-01T01:04:03.178Z,69.50
2018-07-01T01:09:09.685Z,71.60
2018-07-01T01:19:15.952Z,73.60
2018-07-01T01:24:19.208Z,76.30
2018-07-01T01:34:25.496Z,77.90
2018-07-01T01:39:34.266Z,79.70
2018-07-01T01:44:48.378Z,79.00
2018-07-01T01:55:38.518Z,80.00
2018-07-01T02:00:50.259Z,80.20
2018-07-01T02:06:30.668Z,83.60
2018-07-01T02:11:37.150Z,83.40
2018-07-01T02:21:47.460Z,85.10
2018-07-01T02:26:50.891Z,83.80
2018-07-01T02:31:54.188Z,82.60
2018-07-01T02:36:57.475Z,82.60
2018-07-01T02:42:00.731Z,84.60
2018-07-01T02:47:04.001Z,83.00
2018-07-01T02:52:07.700Z,83.00
2018-07-01T02:57:11.011Z,82.60
2018-07-01T03:02:14.285Z,81.40
2018-07-01T03:12:21.466Z,80.50
2018-07-01T03:17:25.469Z,84.60
2018-07-01T03:22:28.868Z,86.50
2018-07-01T03:27:32.132Z,86.70
2018-07-01T03:32:35.383Z,88.60
2018-07-01T03:42:41.650Z,87.30
2018-07-01T03:47:44.939Z,87.80
2018-07-01T03:52:48.287Z,88.30
2018-07-01T04:07:59.010Z,87.30
2018-07-01T04:13:02.292Z,86.10
2018-07-01T04:18:05.706Z,87.20
2018-07-01T04:23:09.267Z,83.60
2018-07-01T04:28:12.585Z,82.70
2018-07-01T04:33:15.848Z,82.20
2018-07-01T04:38:19.123Z,82.20
2018-07-01T04:48:25.512Z,84.50
2018-07-01T04:53:28.775Z,81.20
2018-07-01T04:58:32.025Z,79.10
2018-07-01T05:03:35.301Z,76.90
2018-07-01T05:08:38.545Z,78.00
2018-07-01T05:13:41.795Z,77.20
2018-07-01T05:18:45.068Z,77.60
2018-07-01T05:23:48.324Z,77.50
2018-07-01T05:28:51.780Z,75.30
2018-07-01T05:33:55.752Z,75.50
2018-07-01T05:44:02.569Z,70.70
2018-07-01T05:49:05.860Z,66.90
2018-07-01T05:54:09.437Z,66.40
2018-07-01T05:59:12.732Z,62.70
2018-07-01T06:04:16.000Z,58.80
2018-07-01T06:09:19.379Z,62.20
2018-07-01T06:14:22.650Z,61.10
2018-07-01T06:24:28.995Z,48.00
2018-07-01T06:29:32.265Z,51.50
2018-07-01T06:34:35.548Z,52.30
2018-07-01T06:39:38.795Z,51.30
2018-07-01T06:49:45.036Z,49.40
2018-07-01T06:54:48.338Z,46.10
2018-07-01T06:59:51.622Z,46.00
2018-07-01T07:04:54.916Z,42.80
2018-07-01T07:15:01.209Z,43.40
2018-07-01T07:20:04.498Z,43.90
2018-07-01T07:25:07.761Z,45.90
2018-07-01T07:30:11.046Z,44.10
2018-07-01T07:35:14.334Z,42.80
2018-07-01T07:40:19.169Z,41.20
2018-07-01T07:45:22.642Z,40.60
2018-07-01T07:50:25.947Z,42.10
2018-07-01T07:55:29.230Z,39.40
2018-07-01T08:00:32.588Z,37.70
2018-07-01T08:05:35.887Z,42.50
2018-07-01T08:10:39.152Z,39.10
2018-07-01T08:15:42.439Z,40.10
2018-07-01T08:20:45.696Z,36.50
2018-07-01T08:25:48.964Z,37.20
2018-07-01T08:30:52.244Z,35.80
2018-07-01T08:35:55.504Z,38.50
2018-07-01T08:40:58.806Z,36.50
2018-07-01T08:46:02.079Z,38.40
2018-07-01T08:51:05.369Z,36.30
2018-07-01T08:56:08.648Z,39.50
2018-07-01T09:01:11.908Z,36.40
2018-07-01T09:06:15.159Z,36.90
2018-07-01T09:11:18.427Z,42.30
2018-07-01T09:16:21.674Z,37.20
2018-07-01T09:21:24.943Z,35.80
2018-07-01T09:26:28.208Z,34.90
2018-07-01T09:31:38.104Z,37.10
2018-07-01T09:36:41.377Z,35.20
2018-07-01T09:41:45.640Z,33.10
2018-07-01T09:46:48.896Z,35.10
2018-07-01T09:56:55.272Z,32.70
2018-07-01T10:01:58.649Z,33.60
2018-07-01T10:07:01.961Z,33.00
2018-07-01T10:12:06.115Z,33.60
2018-07-01T10:17:09.285Z,29.80
2018-07-01T10:22:12.672Z,29.70
2018-07-01T10:27:15.950Z,31.50
2018-07-01T10:32:19.455Z,33.60
2018-07-01T10:37:22.763Z,36.10
2018-07-01T10:42:26.065Z,35.50
2018-07-01T10:47:29.353Z,32.40
2018-07-01T10:57:35.698Z,31.10
2018-07-01T11:02:38.950Z,30.90
2018-07-01T11:07:42.221Z,31.60
2018-07-01T11:12:45.508Z,30.00
2018-07-01T11:17:48.799Z,31.20
2018-07-01T11:22:52.085Z,29.60
2018-07-01T11:27:55.364Z,29.20
2018-07-01T11:32:58.645Z,27.50
2018-07-01T11:48:08.012Z,27.40
2018-07-01T11:53:11.366Z,26.10
2018-07-01T11:58:14.665Z,27.50
2018-07-01T12:03:17.947Z,26.10
2018-07-01T12:08:21.216Z,23.70
2018-07-01T12:13:24.483Z,24.80
2018-07-01T12:18:27.772Z,24.10
2018-07-01T12:23:31.149Z,24.70
2018-07-01T12:28:34.336Z,24.00
2018-07-01T12:33:37.733Z,23.50
2018-07-01T12:38:40.992Z,24.10
2018-07-01T12:43:44.255Z,26.30
2018-07-01T12:48:47.525Z,23.80
2018-07-01T12:53:50.769Z,24.90
2018-07-01T12:58:54.064Z,23.50
2018-07-01T13:03:57.352Z,22.00
2018-07-01T13:09:00.640Z,21.80
2018-07-01T13:14:04.252Z,22.30
2018-07-01T13:19:07.588Z,21.00
2018-07-01T13:24:10.994Z,21.30
2018-07-01T13:29:14.272Z,23.00
2018-07-01T13:34:17.705Z,21.20
2018-07-01T13:49:26.996Z,21.30
2018-07-01T13:54:30.275Z,22.40
2018-07-01T13:59:33.524Z,24.50
2018-07-01T14:04:36.787Z,23.50
2018-07-01T14:09:40.118Z,22.40
2018-07-01T14:14:43.343Z,22.10
2018-07-01T14:19:46.640Z,21.60
2018-07-01T14:24:49.895Z,22.60
2018-07-01T14:29:53.168Z,21.30
2018-07-01T14:34:56.428Z,22.40
2018-07-01T14:39:59.692Z,23.00
2018-07-01T14:45:02.972Z,25.10
2018-07-01T14:50:06.257Z,23.90
2018-07-01T14:55:09.545Z,22.90
2018-07-01T15:00:12.824Z,26.00
2018-07-01T15:05:16.124Z,25.70
2018-07-01T15:10:19.406Z,26.10
2018-07-01T15:15:22.663Z,26.50
2018-07-01T15:20:25.983Z,24.90
2018-07-01T15:25:29.262Z,25.40
2018-07-01T15:30:32.525Z,26.10
2018-07-01T15:35:35.781Z,26.60
2018-07-01T15:40:39.023Z,26.60
2018-07-01T15:45:42.306Z,27.10
2018-07-01T15:50:45.592Z,28.30
2018-07-01T16:00:52.028Z,30.70
2018-07-01T16:05:55.503Z,29.80
2018-07-01T16:16:01.832Z,30.30
2018-07-01T16:26:14.138Z,32.30
2018-07-01T16:31:17.879Z,33.10
2018-07-01T16:36:23.676Z,33.80
2018-07-01T16:41:28.911Z,34.20
2018-07-01T16:46:34.600Z,34.30
2018-07-01T16:51:39.960Z,33.70
2018-07-01T16:56:46.425Z,34.60
2018-07-01T17:01:52.518Z,34.40
2018-07-01T17:06:55.969Z,35.20
2018-07-01T17:11:59.293Z,37.30
2018-07-01T17:17:02.544Z,36.70
2018-07-01T17:22:05.815Z,36.40
2018-07-01T17:27:09.276Z,36.10
2018-07-01T17:37:20.981Z,37.00
2018-07-01T17:42:24.316Z,36.70
2018-07-01T17:47:27.604Z,37.30
2018-07-01T17:52:32.043Z,38.00
2018-07-01T17:57:37.321Z,38.70
2018-07-01T18:02:43.732Z,38.80
2018-07-01T18:07:48.946Z,39.30
2018-07-01T18:12:52.261Z,39.40
2018-07-01T18:17:55.656Z,38.40
2018-07-01T18:23:27.414Z,38.60
2018-07-01T18:28:15.019Z,39.10
2018-07-01T18:33:06.552Z,40.50
2018-07-01T18:38:09.971Z,41.70
2018-07-01T18:43:13.216Z,41.30
2018-07-01T18:48:16.529Z,41.80
2018-07-01T18:53:19.821Z,42.40
2018-07-01T18:58:23.167Z,41.90
2018-07-01T19:03:26.413Z,42.70
2018-07-01T19:08:29.676Z,43.20
2018-07-01T19:13:32.952Z,42.80
2018-07-01T19:18:36.216Z,42.90
2018-07-01T19:23:39.905Z,43.40
2018-07-01T19:28:43.911Z,43.20
2018-07-01T19:33:47.251Z,43.30
2018-07-01T19:38:50.787Z,43.80
2018-07-01T19:43:54.616Z,43.70
2018-07-01T19:48:57.987Z,44.40
2018-07-01T19:54:01.250Z,45.60
2018-07-01T19:59:04.507Z,45.40
2018-07-01T20:04:07.791Z,45.70
2018-07-01T20:14:14.246Z,47.10
2018-07-01T20:19:17.608Z,46.10
2018-07-01T20:24:20.884Z,45.60
2018-07-01T20:29:24.163Z,45.80
2018-07-01T20:34:27.415Z,46.40
2018-07-01T20:39:30.695Z,46.30
2018-07-01T20:59:43.051Z,50.70
2018-07-01T21:04:46.313Z,51.10
2018-07-01T21:09:49.594Z,52.20
2018-07-01T21:14:52.853Z,52.50
2018-07-01T21:24:59.091Z,52.70
2018-07-01T21:35:05.555Z,55.00
2018-07-01T21:40:08.848Z,55.20
2018-07-01T21:45:12.103Z,54.50
2018-07-01T21:50:15.431Z,55.30
2018-07-01T21:55:18.664Z,55.50
2018-07-01T22:00:27.487Z,53.80
2018-07-01T22:05:30.879Z,56.40
2018-07-01T22:10:45.680Z,57.70
2018-07-01T22:16:00.394Z,58.10
2018-07-01T22:21:03.688Z,58.80
2018-07-01T22:26:06.985Z,59.10
2018-07-01T22:31:10.246Z,60.40
2018-07-01T22:46:26.188Z,61.20
2018-07-01T22:51:29.751Z,60.30
2018-07-01T22:56:33.502Z,61.70
2018-07-01T23:01:44.871Z,62.70
2018-07-01T23:06:48.135Z,63.20
2018-07-01T23:11:51.412Z,63.80
2018-07-01T23:16:54.679Z,65.80
2018-07-01T23:21:57.951Z,66.30
2018-07-01T23:27:01.231Z,67.20
2018-07-01T23:32:04.515Z,67.30
2018-07-01T23:37:07.811Z,68.80
2018-07-01T23:42:11.071Z,70.20
2018-07-01T23:47:14.348Z,71.10
2018-07-01T23:52:18.307Z,72.30
2018-07-01T23:57:21.562Z,72.50
